createdAt,value
2017-07-23T00:01:08.490Z,22.00
2017-07-23T00:03:36.033Z,21.90
2017-07-23T00:06:03.602Z,21.70
2017-07-23T00:08:31.154Z,21.60
2017-07-23T00:10:58.746Z,21.50
2017-07-23T00:13:26.350Z,21.40
2017-07-23T00:15:53.892Z,21.40
2017-07-23T00:18:22.201Z,21.50
2017-07-23T00:20:49.821Z,21.40
2017-07-23T00:23:17.365Z,21.40
2017-07-23T00:25:45.208Z,21.40
2017-07-23T00:28:12.789Z,21.30
2017-07-23T00:30:40.332Z,21.20
2017-07-23T00:33:07.878Z,21.30
2017-07-23T00:35:35.490Z,21.30
2017-07-23T00:38:03.029Z,21.20
2017-07-23T00:40:30.569Z,21.20
2017-07-23T00:42:58.141Z,21.10
2017-07-23T00:45:25.685Z,21.10
2017-07-23T00:47:53.243Z,21.10
2017-07-23T00:50:20.826Z,20.90
2017-07-23T00:52:48.377Z,20.60
2017-07-23T00:55:15.922Z,20.00
2017-07-23T00:57:43.537Z,19.50
2017-07-23T01:00:11.085Z,19.20
2017-07-23T01:02:38.629Z,18.80
2017-07-23T01:05:06.197Z,18.70
2017-07-23T01:07:33.749Z,18.50
2017-07-23T01:10:01.297Z,18.50
2017-07-23T01:12:28.872Z,18.40
2017-07-23T01:14:56.413Z,18.40
2017-07-23T01:17:23.957Z,18.40
2017-07-23T01:19:51.721Z,18.40
2017-07-23T01:22:19.266Z,18.30
2017-07-23T01:24:46.805Z,18.30
2017-07-23T01:27:14.741Z,18.30
2017-07-23T01:29:42.287Z,18.40
2017-07-23T01:32:09.829Z,18.30
2017-07-23T01:34:37.397Z,18.20
2017-07-23T01:37:04.951Z,18.10
2017-07-23T01:39:32.492Z,18.00
2017-07-23T01:42:00.158Z,17.90
2017-07-23T01:44:27.702Z,17.80
2017-07-23T01:46:55.245Z,17.70
2017-07-23T01:49:22.826Z,17.70
2017-07-23T01:51:50.369Z,17.70
2017-07-23T01:54:17.917Z,17.60
2017-07-23T01:56:45.489Z,17.60
2017-07-23T01:59:13.045Z,17.60
2017-07-23T02:01:40.592Z,17.70
2017-07-23T02:04:08.210Z,17.60
2017-07-23T02:06:35.756Z,17.60
2017-07-23T02:09:03.296Z,17.60
2017-07-23T02:11:30.891Z,17.70
2017-07-23T02:13:58.459Z,17.60
2017-07-23T02:16:26.007Z,17.60
2017-07-23T02:18:53.597Z,17.60
2017-07-23T02:21:21.149Z,17.60
2017-07-23T02:23:48.830Z,17.60
2017-07-23T02:26:16.436Z,17.70
2017-07-23T02:28:44.601Z,17.60
2017-07-23T02:31:12.170Z,17.70
2017-07-23T02:33:39.800Z,17.80
2017-07-23T02:36:08.123Z,17.80
2017-07-23T02:38:35.669Z,17.80
2017-07-23T02:41:03.243Z,17.70
2017-07-23T02:43:30.790Z,17.70
2017-07-23T02:45:58.337Z,17.80
2017-07-23T02:48:26.005Z,17.90
2017-07-23T02:50:53.554Z,18.00
2017-07-23T02:53:21.865Z,18.20
2017-07-23T02:55:49.440Z,18.20
2017-07-23T02:58:16.985Z,18.40
2017-07-23T03:00:44.529Z,18.40
2017-07-23T03:03:12.096Z,18.40
2017-07-23T03:05:39.661Z,18.20
2017-07-23T03:08:07.212Z,18.20
2017-07-23T03:10:34.873Z,18.20
2017-07-23T03:13:02.422Z,18.00
2017-07-23T03:15:29.977Z,17.90
2017-07-23T03:17:57.575Z,17.80
2017-07-23T03:20:25.117Z,17.70
2017-07-23T03:22:52.661Z,17.70
2017-07-23T03:25:20.233Z,17.70
2017-07-23T03:27:47.777Z,17.60
2017-07-23T03:30:15.537Z,17.50
2017-07-23T03:32:43.161Z,17.50
2017-07-23T03:35:10.709Z,17.50
2017-07-23T03:37:38.257Z,17.50
2017-07-23T03:40:05.864Z,17.50
2017-07-23T03:42:33.418Z,17.50
2017-07-23T03:45:00.970Z,17.40
2017-07-23T03:47:28.550Z,17.40
2017-07-23T03:49:56.098Z,17.50
2017-07-23T03:52:23.649Z,17.50
2017-07-23T03:54:51.272Z,17.70
2017-07-23T03:57:18.818Z,17.60
2017-07-23T03:59:46.357Z,17.60
2017-07-23T04:02:14.694Z,17.30
2017-07-23T04:04:42.229Z,17.30
2017-07-23T04:07:09.768Z,17.20
2017-07-23T04:09:37.348Z,17.20
2017-07-23T04:12:05.761Z,17.20
2017-07-23T04:14:33.306Z,17.30
2017-07-23T04:17:00.935Z,17.50
2017-07-23T04:19:28.484Z,17.50
2017-07-23T04:21:56.034Z,17.50
2017-07-23T04:24:23.601Z,17.50
2017-07-23T04:26:51.146Z,17.50
2017-07-23T04:29:19.452Z,17.60
2017-07-23T04:31:47.452Z,17.50
2017-07-23T04:34:15.010Z,17.60
2017-07-23T04:36:42.561Z,17.70
2017-07-23T04:39:10.162Z,17.70
2017-07-23T04:41:37.701Z,17.80
2017-07-23T04:44:05.236Z,17.90
2017-07-23T04:46:32.946Z,17.80
2017-07-23T04:49:00.497Z,17.80
2017-07-23T04:51:28.047Z,17.80
2017-07-23T04:53:55.629Z,17.90
2017-07-23T04:56:23.956Z,18.00
2017-07-23T04:58:51.497Z,17.90
2017-07-23T05:01:19.529Z,18.00
2017-07-23T05:03:47.122Z,18.20
2017-07-23T05:06:14.661Z,18.40
2017-07-23T05:08:42.238Z,18.40
2017-07-23T05:11:09.782Z,18.30
2017-07-23T05:13:37.333Z,18.50
2017-07-23T05:16:04.897Z,18.60
2017-07-23T05:18:33.210Z,18.60
2017-07-23T05:21:00.748Z,18.60
2017-07-23T05:23:29.164Z,18.90
2017-07-23T05:25:56.701Z,18.80
2017-07-23T05:28:24.248Z,19.00
2017-07-23T05:30:51.815Z,19.20
2017-07-23T05:33:19.439Z,19.40
2017-07-23T05:35:46.994Z,19.50
2017-07-23T05:38:14.558Z,19.60
2017-07-23T05:40:42.090Z,19.60
2017-07-23T05:43:09.642Z,19.70
2017-07-23T05:45:37.261Z,19.70
2017-07-23T05:48:04.798Z,19.90
2017-07-23T05:50:32.337Z,19.80
2017-07-23T05:53:00.049Z,20.10
2017-07-23T05:55:27.593Z,20.60
2017-07-23T05:57:55.910Z,22.00
2017-07-23T06:00:23.480Z,21.90
2017-07-23T06:02:51.013Z,22.60
2017-07-23T06:05:18.549Z,22.60
2017-07-23T06:07:46.170Z,22.40
2017-07-23T06:10:13.718Z,22.10
2017-07-23T06:12:41.261Z,21.90
2017-07-23T06:15:08.826Z,21.60
2017-07-23T06:17:36.374Z,21.20
2017-07-23T06:20:03.928Z,21.10
2017-07-23T06:22:31.505Z,20.90
2017-07-23T06:24:59.054Z,20.80
2017-07-23T06:27:26.606Z,20.70
2017-07-23T06:29:54.270Z,20.60
2017-07-23T06:32:21.818Z,20.50
2017-07-23T06:34:49.792Z,20.30
2017-07-23T06:37:17.365Z,20.40
2017-07-23T06:39:48.097Z,20.40
2017-07-23T06:42:15.654Z,20.60
2017-07-23T06:44:43.249Z,20.80
2017-07-23T06:47:10.810Z,21.20
2017-07-23T06:49:38.375Z,21.70
2017-07-23T06:52:08.136Z,22.10
2017-07-23T06:54:38.065Z,22.50
2017-07-23T06:57:05.626Z,23.50
2017-07-23T06:59:33.973Z,24.70
2017-07-23T07:02:01.538Z,25.40
2017-07-23T07:04:29.101Z,26.40
2017-07-23T07:06:56.681Z,27.30
2017-07-23T07:09:24.239Z,29.00
2017-07-23T07:11:52.562Z,29.60
2017-07-23T07:14:21.130Z,29.60
2017-07-23T07:16:48.686Z,30.30
2017-07-23T07:19:16.257Z,30.30
2017-07-23T07:24:21.841Z,28.20
2017-07-23T07:26:51.518Z,26.50
2017-07-23T07:29:22.983Z,25.90
2017-07-23T07:31:50.609Z,25.40
2017-07-23T07:34:18.152Z,25.00
2017-07-23T07:36:47.065Z,23.20
2017-07-23T07:39:14.893Z,23.10
2017-07-23T07:41:42.438Z,22.80
2017-07-23T07:44:09.982Z,22.70
2017-07-23T07:46:37.546Z,22.80
2017-07-23T07:49:05.089Z,23.00
2017-07-23T07:51:32.635Z,23.10
2017-07-23T07:54:00.211Z,23.20
2017-07-23T07:56:27.750Z,23.20
2017-07-23T07:58:55.306Z,23.50
2017-07-23T08:01:22.913Z,24.10
2017-07-23T08:03:50.459Z,24.80
2017-07-23T08:06:18.000Z,25.20
2017-07-23T08:08:45.730Z,25.50
2017-07-23T08:11:13.268Z,25.70
2017-07-23T08:13:40.817Z,25.20
2017-07-23T08:16:08.381Z,24.70
2017-07-23T08:18:35.910Z,24.30
2017-07-23T08:21:03.445Z,24.10
2017-07-23T08:23:31.014Z,24.00
2017-07-23T08:25:58.557Z,23.60
2017-07-23T08:28:26.105Z,23.40
2017-07-23T08:30:53.714Z,23.10
2017-07-23T08:33:21.249Z,23.20
2017-07-23T08:35:48.961Z,23.30
2017-07-23T08:38:16.904Z,23.20
2017-07-23T08:40:44.468Z,23.40
2017-07-23T08:43:12.034Z,23.70
2017-07-23T08:45:39.615Z,24.20
2017-07-23T08:48:07.215Z,24.40
2017-07-23T08:50:34.789Z,24.50
2017-07-23T08:53:02.420Z,24.30
2017-07-23T08:55:30.006Z,24.60
2017-07-23T08:57:58.374Z,25.90
2017-07-23T09:00:25.965Z,27.80
2017-07-23T09:02:53.515Z,28.50
2017-07-23T09:05:21.088Z,29.20
2017-07-23T09:07:48.742Z,30.60
2017-07-23T09:10:16.293Z,30.10
2017-07-23T09:12:43.853Z,29.50
2017-07-23T09:15:11.490Z,28.80
2017-07-23T09:17:39.177Z,28.20
2017-07-23T09:20:06.745Z,28.20
2017-07-23T09:22:34.341Z,28.10
2017-07-23T09:25:01.949Z,28.30
2017-07-23T09:27:29.505Z,27.70
2017-07-23T09:29:58.037Z,26.50
2017-07-23T09:32:25.598Z,26.50
2017-07-23T09:34:53.162Z,26.20
2017-07-23T09:37:20.745Z,25.90
2017-07-23T09:39:48.865Z,25.90
2017-07-23T09:42:16.430Z,25.70
2017-07-23T09:44:44.003Z,25.60
2017-07-23T09:47:11.550Z,25.60
2017-07-23T09:49:39.089Z,25.70
2017-07-23T09:52:06.759Z,25.50
2017-07-23T09:54:34.307Z,25.50
2017-07-23T09:57:01.875Z,25.30
2017-07-23T09:59:29.478Z,25.20
2017-07-23T10:01:57.033Z,25.20
2017-07-23T10:04:24.594Z,25.10
2017-07-23T10:06:52.199Z,25.30
2017-07-23T10:09:20.540Z,25.60
2017-07-23T10:11:48.094Z,25.60
2017-07-23T10:14:15.735Z,25.70
2017-07-23T10:16:43.296Z,25.90
2017-07-23T10:19:10.866Z,26.40
2017-07-23T10:21:38.434Z,26.10
2017-07-23T10:24:05.989Z,26.30
2017-07-23T10:26:33.592Z,26.40
2017-07-23T10:29:01.194Z,26.50
2017-07-23T10:31:28.749Z,26.70
2017-07-23T10:33:56.297Z,26.90
2017-07-23T10:36:23.982Z,26.70
2017-07-23T10:38:51.531Z,27.00
2017-07-23T10:41:19.278Z,27.00
2017-07-23T10:43:46.863Z,27.10
2017-07-23T10:46:14.468Z,27.10
2017-07-23T10:48:42.026Z,26.70
2017-07-23T10:51:09.598Z,26.70
2017-07-23T10:53:37.141Z,27.10
2017-07-23T10:56:04.909Z,27.10
2017-07-23T10:58:32.523Z,27.20
2017-07-23T11:01:00.411Z,27.40
2017-07-23T11:03:27.955Z,27.40
2017-07-23T11:05:55.517Z,27.20
2017-07-23T11:08:23.058Z,27.00
2017-07-23T11:10:50.605Z,26.80
2017-07-23T11:13:18.177Z,26.70
2017-07-23T11:15:45.716Z,26.40
2017-07-23T11:18:13.278Z,26.50
2017-07-23T11:20:40.938Z,26.30
2017-07-23T11:23:08.480Z,26.30
2017-07-23T11:25:36.022Z,26.30
2017-07-23T11:28:03.582Z,26.30
2017-07-23T11:30:31.125Z,26.50
2017-07-23T11:32:58.668Z,26.40
2017-07-23T11:35:26.244Z,26.50
2017-07-23T11:37:57.734Z,26.20
2017-07-23T11:40:26.053Z,26.20
2017-07-23T11:42:53.697Z,26.20
2017-07-23T11:45:21.240Z,26.30
2017-07-23T11:47:48.773Z,26.20
2017-07-23T11:50:16.458Z,26.10
2017-07-23T11:52:44.001Z,26.20
2017-07-23T11:55:11.533Z,26.00
2017-07-23T11:57:39.097Z,25.70
2017-07-23T12:00:06.644Z,25.60
2017-07-23T12:02:34.186Z,25.70
2017-07-23T12:05:01.822Z,25.90
2017-07-23T12:07:29.357Z,26.10
2017-07-23T12:09:56.957Z,26.30
2017-07-23T12:12:24.526Z,26.30
2017-07-23T12:14:52.073Z,26.50
2017-07-23T12:17:20.382Z,26.40
2017-07-23T12:19:47.969Z,26.40
2017-07-23T12:22:15.546Z,26.40
2017-07-23T12:24:43.084Z,26.40
2017-07-23T12:27:10.772Z,26.60
2017-07-23T12:29:38.317Z,26.40
2017-07-23T12:32:05.864Z,26.20
2017-07-23T12:34:33.441Z,25.90
2017-07-23T12:37:00.981Z,26.20
2017-07-23T12:39:28.526Z,26.40
2017-07-23T12:41:56.102Z,26.40
2017-07-23T12:44:23.833Z,26.50
2017-07-23T12:46:51.383Z,26.40
2017-07-23T12:49:19.161Z,26.10
2017-07-23T12:51:46.714Z,25.90
2017-07-23T12:54:15.104Z,26.10
2017-07-23T12:56:42.669Z,26.10
2017-07-23T12:59:10.209Z,26.40
2017-07-23T13:01:37.750Z,26.40
2017-07-23T13:04:05.322Z,26.60
2017-07-23T13:06:32.865Z,26.40
2017-07-23T13:09:00.410Z,26.30
2017-07-23T13:11:28.040Z,26.10
2017-07-23T13:13:55.584Z,26.20
2017-07-23T13:16:23.121Z,26.20
2017-07-23T13:18:51.449Z,26.30
2017-07-23T13:21:18.992Z,26.30
2017-07-23T13:23:46.542Z,26.40
2017-07-23T13:26:14.123Z,26.10
2017-07-23T13:28:41.681Z,26.00
2017-07-23T13:31:09.228Z,26.10
2017-07-23T13:33:36.893Z,25.90
2017-07-23T13:36:04.437Z,25.90
2017-07-23T13:38:31.981Z,25.50
2017-07-23T13:40:59.546Z,25.30
2017-07-23T13:43:27.859Z,25.20
2017-07-23T13:45:55.845Z,25.10
2017-07-23T13:48:23.413Z,24.80
2017-07-23T13:50:50.953Z,24.50
2017-07-23T13:53:18.495Z,24.50
2017-07-23T13:55:46.297Z,24.50
2017-07-23T13:58:13.837Z,24.60
2017-07-23T14:00:41.378Z,24.60
2017-07-23T14:03:08.945Z,24.60
2017-07-23T14:05:36.476Z,24.70
2017-07-23T14:08:04.025Z,24.80
2017-07-23T14:10:32.366Z,25.30
2017-07-23T14:12:59.919Z,25.30
2017-07-23T14:15:27.458Z,25.50
2017-07-23T14:17:55.129Z,25.40
2017-07-23T14:20:22.670Z,25.30
2017-07-23T14:22:50.220Z,25.50
2017-07-23T14:25:17.834Z,25.40
2017-07-23T14:27:45.373Z,25.30
2017-07-23T14:30:12.920Z,25.20
2017-07-23T14:32:40.494Z,25.20
2017-07-23T14:35:08.025Z,25.00
2017-07-23T14:37:35.577Z,24.90
2017-07-23T14:40:03.252Z,24.70
2017-07-23T14:42:30.837Z,24.70
2017-07-23T14:44:58.378Z,24.30
2017-07-23T14:47:25.965Z,24.10
2017-07-23T14:49:53.502Z,24.10
2017-07-23T14:52:21.056Z,23.90
2017-07-23T14:54:48.617Z,23.80
2017-07-23T14:57:16.153Z,23.80
2017-07-23T14:59:43.689Z,23.80
2017-07-23T15:02:11.303Z,24.10
2017-07-23T15:04:38.844Z,24.00
2017-07-23T15:07:06.393Z,24.10
2017-07-23T15:09:34.721Z,24.40
2017-07-23T15:12:02.264Z,24.40
2017-07-23T15:14:29.801Z,24.50
2017-07-23T15:16:57.386Z,24.60
2017-07-23T15:19:24.928Z,24.70
2017-07-23T15:21:52.469Z,24.80
2017-07-23T15:24:20.449Z,25.10
2017-07-23T15:26:47.992Z,25.20
2017-07-23T15:29:15.536Z,25.10
2017-07-23T15:31:43.118Z,24.50
2017-07-23T15:34:11.434Z,24.30
2017-07-23T15:36:38.981Z,24.20
2017-07-23T15:39:06.554Z,24.10
2017-07-23T15:41:34.106Z,24.10
2017-07-23T15:44:01.650Z,24.00
2017-07-23T15:46:29.299Z,24.10
2017-07-23T15:48:57.433Z,24.10
2017-07-23T15:51:24.976Z,23.70
2017-07-23T15:53:52.545Z,23.80
2017-07-23T15:56:20.087Z,23.70
2017-07-23T15:58:47.640Z,23.70
2017-07-23T16:01:15.200Z,23.70
2017-07-23T16:03:42.741Z,23.70
2017-07-23T16:06:10.277Z,23.80
2017-07-23T16:08:37.876Z,23.90
2017-07-23T16:11:05.429Z,24.20
2017-07-23T16:13:32.970Z,24.20
2017-07-23T16:16:01.305Z,23.90
2017-07-23T16:18:28.842Z,23.90
2017-07-23T16:20:56.381Z,23.80
2017-07-23T16:23:23.945Z,23.70
2017-07-23T16:25:51.494Z,23.50
2017-07-23T16:28:19.064Z,23.40
2017-07-23T16:30:47.017Z,23.20
2017-07-23T16:33:15.326Z,23.00
2017-07-23T16:35:42.865Z,22.90
2017-07-23T16:38:10.428Z,22.80
2017-07-23T16:40:37.969Z,22.80
2017-07-23T16:43:05.508Z,22.70
2017-07-23T16:45:33.088Z,22.70
2017-07-23T16:48:00.627Z,22.80
2017-07-23T16:50:28.430Z,22.70
2017-07-23T16:52:56.086Z,22.70
2017-07-23T16:55:23.625Z,22.70
2017-07-23T16:57:51.241Z,23.00
2017-07-23T17:00:18.805Z,23.10
2017-07-23T17:02:47.014Z,23.10
2017-07-23T17:05:17.437Z,23.30
2017-07-23T17:07:45.001Z,23.20
2017-07-23T17:10:12.582Z,23.30
2017-07-23T17:12:40.160Z,23.30
2017-07-23T17:15:07.925Z,23.30
2017-07-23T17:17:35.461Z,23.10
2017-07-23T17:20:03.783Z,22.90
2017-07-23T17:22:31.352Z,22.90
2017-07-23T17:24:58.896Z,22.90
2017-07-23T17:27:26.428Z,23.00
2017-07-23T17:29:53.993Z,23.00
2017-07-23T17:32:21.540Z,23.00
2017-07-23T17:34:49.091Z,23.00
2017-07-23T17:37:16.714Z,22.90
2017-07-23T17:39:44.262Z,22.80
2017-07-23T17:42:11.809Z,22.80
2017-07-23T17:44:39.425Z,22.70
2017-07-23T17:47:06.961Z,22.60
2017-07-23T17:49:34.493Z,22.50
2017-07-23T17:52:02.789Z,22.50
2017-07-23T17:54:30.324Z,22.40
2017-07-23T17:56:57.862Z,22.40
2017-07-23T17:59:26.312Z,22.40
2017-07-23T18:01:53.860Z,22.40
2017-07-23T18:04:21.397Z,22.40
2017-07-23T18:06:48.962Z,22.40
2017-07-23T18:09:16.505Z,22.40
2017-07-23T18:11:44.045Z,22.30
2017-07-23T18:14:11.618Z,22.20
2017-07-23T18:16:39.175Z,22.10
2017-07-23T18:19:07.845Z,22.00
2017-07-23T18:21:43.256Z,22.00
2017-07-23T18:24:12.104Z,22.00
2017-07-23T18:26:46.310Z,22.00
2017-07-23T18:29:16.211Z,22.00
2017-07-23T18:31:43.846Z,22.00
2017-07-23T18:34:11.409Z,22.10
2017-07-23T18:36:38.945Z,22.00
2017-07-23T18:39:06.494Z,21.90
2017-07-23T18:41:34.118Z,21.90
2017-07-23T18:44:01.666Z,21.90
2017-07-23T18:46:30.042Z,21.60
2017-07-23T18:48:58.394Z,21.60
2017-07-23T18:51:26.794Z,21.60
2017-07-23T18:53:54.485Z,21.60
2017-07-23T18:56:22.089Z,21.50
2017-07-23T18:58:51.474Z,21.60
2017-07-23T19:01:19.063Z,21.40
2017-07-23T19:03:46.809Z,21.20
2017-07-23T19:06:14.369Z,20.90
2017-07-23T19:08:44.045Z,20.70
2017-07-23T19:11:19.321Z,20.70
2017-07-23T19:13:48.649Z,20.20
2017-07-23T19:16:16.264Z,20.00
2017-07-23T19:18:43.842Z,19.70
2017-07-23T19:21:11.397Z,19.70
2017-07-23T19:23:38.963Z,19.70
2017-07-23T19:26:06.586Z,19.60
2017-07-23T19:28:34.893Z,19.60
2017-07-23T19:31:02.433Z,19.60
2017-07-23T19:33:30.014Z,19.60
2017-07-23T19:35:57.567Z,19.60
2017-07-23T19:38:25.122Z,19.70
2017-07-23T19:40:52.725Z,19.80
2017-07-23T19:43:20.325Z,19.80
2017-07-23T19:45:47.877Z,19.70
2017-07-23T19:48:15.511Z,19.90
2017-07-23T19:50:43.058Z,19.90
2017-07-23T19:53:10.606Z,20.00
2017-07-23T19:55:38.668Z,20.00
2017-07-23T19:58:06.302Z,19.90
2017-07-23T20:00:33.853Z,20.00
2017-07-23T20:03:01.456Z,20.10
2017-07-23T20:05:29.009Z,20.10
2017-07-23T20:07:56.597Z,20.10
2017-07-23T20:10:24.341Z,20.10
2017-07-23T20:12:51.893Z,20.00
2017-07-23T20:15:19.437Z,20.00
2017-07-23T20:17:47.012Z,20.00
2017-07-23T20:20:14.589Z,20.10
2017-07-23T20:22:42.141Z,20.00
2017-07-23T20:25:09.721Z,20.10
2017-07-23T20:27:37.273Z,20.10
2017-07-23T20:30:04.829Z,20.00
2017-07-23T20:32:32.449Z,20.00
2017-07-23T20:35:00.006Z,19.90
2017-07-23T20:37:27.571Z,19.70
2017-07-23T20:39:55.186Z,19.70
2017-07-23T20:42:22.742Z,19.70
2017-07-23T20:44:50.293Z,19.50
2017-07-23T20:47:17.933Z,19.60
2017-07-23T20:49:45.500Z,19.60
2017-07-23T20:52:13.053Z,19.70
2017-07-23T20:54:40.677Z,19.70
2017-07-23T20:57:08.665Z,19.60
2017-07-23T20:59:36.213Z,19.50
2017-07-23T21:02:03.793Z,19.40
2017-07-23T21:04:31.352Z,19.40
2017-07-23T21:06:58.910Z,19.30
2017-07-23T21:09:26.505Z,19.30
2017-07-23T21:11:54.057Z,19.20
2017-07-23T21:14:21.688Z,19.20
2017-07-23T21:16:49.413Z,19.10
2017-07-23T21:19:16.963Z,19.10
2017-07-23T21:21:44.497Z,19.00
2017-07-23T21:24:12.088Z,19.00
2017-07-23T21:26:39.643Z,19.00
2017-07-23T21:29:07.191Z,19.00
2017-07-23T21:31:34.761Z,19.10
2017-07-23T21:34:02.301Z,19.00
2017-07-23T21:36:29.850Z,18.90
2017-07-23T21:38:57.485Z,18.80
2017-07-23T21:41:25.041Z,18.90
2017-07-23T21:43:53.350Z,19.00
2017-07-23T21:46:20.929Z,18.90
2017-07-23T21:48:48.469Z,19.00
2017-07-23T21:51:16.020Z,19.20
2017-07-23T21:53:43.592Z,19.20
2017-07-23T21:56:11.151Z,19.30
2017-07-23T21:58:39.068Z,19.20
2017-07-23T22:01:07.452Z,19.10
2017-07-23T22:03:35.777Z,19.10
2017-07-23T22:06:03.337Z,19.10
2017-07-23T22:08:30.910Z,19.10
2017-07-23T22:10:58.457Z,19.20
2017-07-23T22:13:26.006Z,19.10
2017-07-23T22:15:53.582Z,19.20
2017-07-23T22:18:21.240Z,19.30
2017-07-23T22:20:48.780Z,19.20
2017-07-23T22:23:16.437Z,19.10
2017-07-23T22:25:43.989Z,19.20
2017-07-23T22:28:11.545Z,19.10
2017-07-23T22:30:39.125Z,19.10
2017-07-23T22:33:06.674Z,19.10
2017-07-23T22:35:34.220Z,19.10
2017-07-23T22:38:01.806Z,19.10
2017-07-23T22:40:29.361Z,19.10
2017-07-23T22:42:56.930Z,19.10
2017-07-23T22:45:24.541Z,19.10
2017-07-23T22:47:52.085Z,19.20
2017-07-23T22:50:19.629Z,19.10
2017-07-23T22:52:47.205Z,19.10
2017-07-23T22:55:14.777Z,19.00
2017-07-23T22:57:42.322Z,19.10
2017-07-23T23:00:10.101Z,19.10
2017-07-23T23:02:37.664Z,19.00
2017-07-23T23:05:05.213Z,19.00
2017-07-23T23:07:32.830Z,19.00
2017-07-23T23:10:00.372Z,19.10
2017-07-23T23:12:27.912Z,19.00
2017-07-23T23:14:55.485Z,19.10
2017-07-23T23:17:23.802Z,19.10
2017-07-23T23:19:51.349Z,19.10
2017-07-23T23:22:18.938Z,19.10
2017-07-23T23:24:46.483Z,19.20
2017-07-23T23:27:14.033Z,19.20
2017-07-23T23:29:41.672Z,19.10
2017-07-23T23:32:09.222Z,19.10
2017-07-23T23:34:37.542Z,19.00
2017-07-23T23:37:05.116Z,19.00
2017-07-23T23:39:32.666Z,18.90
2017-07-23T23:42:00.222Z,18.90
2017-07-23T23:44:27.805Z,18.90
2017-07-23T23:46:55.349Z,18.90
2017-07-23T23:49:22.896Z,19.00
2017-07-23T23:51:50.554Z,19.00
2017-07-23T23:54:18.097Z,19.00
2017-07-23T23:56:45.649Z,19.00
2017-07-23T23:59:14.006Z,18.90
